sensor_id;sensor_type;location;lat;lon;timestamp;pressure;altitude;pressure_sealevel;temperature
68027;BMP180;54819;48.030;14.710;2023-05-03T00:02:07;98217.00;;;12.90
68027;BMP180;54819;48.030;14.710;2023-05-03T00:04:36;98213.40;;;12.90
68027;BMP180;54819;48.030;14.710;2023-05-03T00:07:03;98214.00;;;12.90
68027;BMP180;54819;48.030;14.710;2023-05-03T00:09:30;98212.40;;;12.90
68027;BMP180;54819;48.030;14.710;2023-05-03T00:11:58;98209.80;;;12.90
68027;BMP180;54819;48.030;14.710;2023-05-03T00:14:31;98201.20;;;12.90
68027;BMP180;54819;48.030;14.710;2023-05-03T00:16:57;98208.00;;;12.90
68027;BMP180;54819;48.030;14.710;2023-05-03T00:19:24;98206.00;;;12.90
68027;BMP180;54819;48.030;14.710;2023-05-03T00:21:58;98200.00;;;12.90
68027;BMP180;54819;48.030;14.710;2023-05-03T00:24:26;98196.80;;;12.90
68027;BMP180;54819;48.030;14.710;2023-05-03T00:26:53;98200.60;;;12.90
68027;BMP180;54819;48.030;14.710;2023-05-03T00:29:19;98200.20;;;12.90
68027;BMP180;54819;48.030;14.710;2023-05-03T00:31:48;98194.00;;;12.90
68027;BMP180;54819;48.030;14.710;2023-05-03T00:34:14;98194.00;;;12.90
68027;BMP180;54819;48.030;14.710;2023-05-03T00:36:41;98194.80;;;12.90
68027;BMP180;54819;48.030;14.710;2023-05-03T00:39:08;98190.60;;;12.90
68027;BMP180;54819;48.030;14.710;2023-05-03T00:41:35;98186.40;;;12.90
68027;BMP180;54819;48.030;14.710;2023-05-03T00:44:02;98183.80;;;12.90
68027;BMP180;54819;48.030;14.710;2023-05-03T00:46:29;98186.00;;;12.86
68027;BMP180;54819;48.030;14.710;2023-05-03T00:48:56;98186.20;;;12.80
68027;BMP180;54819;48.030;14.710;2023-05-03T00:51:26;98185.40;;;12.80
68027;BMP180;54819;48.030;14.710;2023-05-03T00:53:53;98186.00;;;12.80
68027;BMP180;54819;48.030;14.710;2023-05-03T00:56:22;98190.60;;;12.80
68027;BMP180;54819;48.030;14.710;2023-05-03T00:58:52;98192.00;;;12.80
68027;BMP180;54819;48.030;14.710;2023-05-03T01:01:19;98190.60;;;12.80
68027;BMP180;54819;48.030;14.710;2023-05-03T01:03:46;98189.80;;;12.70
68027;BMP180;54819;48.030;14.710;2023-05-03T01:06:19;98189.60;;;12.68
68027;BMP180;54819;48.030;14.710;2023-05-03T01:09:02;98188.80;;;12.60
68027;BMP180;54819;48.030;14.710;2023-05-03T01:15:46;98195.20;;;12.70
68027;BMP180;54819;48.030;14.710;2023-05-03T01:18:02;98191.40;;;12.70
68027;BMP180;54819;48.030;14.710;2023-05-03T01:20:34;98191.20;;;12.70
68027;BMP180;54819;48.030;14.710;2023-05-03T01:23:32;98190.40;;;12.72
68027;BMP180;54819;48.030;14.710;2023-05-03T01:25:59;98191.20;;;12.70
68027;BMP180;54819;48.030;14.710;2023-05-03T01:28:26;98192.40;;;12.70
68027;BMP180;54819;48.030;14.710;2023-05-03T01:30:55;98192.80;;;12.70
68027;BMP180;54819;48.030;14.710;2023-05-03T01:33:39;98192.00;;;12.70
68027;BMP180;54819;48.030;14.710;2023-05-03T01:36:22;98193.60;;;12.70
68027;BMP180;54819;48.030;14.710;2023-05-03T01:38:52;98192.20;;;12.70
68027;BMP180;54819;48.030;14.710;2023-05-03T01:41:23;98190.60;;;12.70
68027;BMP180;54819;48.030;14.710;2023-05-03T01:43:54;98193.20;;;12.70
68027;BMP180;54819;48.030;14.710;2023-05-03T01:46:21;98190.60;;;12.72
68027;BMP180;54819;48.030;14.710;2023-05-03T01:48:48;98191.00;;;12.72
68027;BMP180;54819;48.030;14.710;2023-05-03T01:51:15;98187.40;;;12.70
68027;BMP180;54819;48.030;14.710;2023-05-03T01:53:42;98189.20;;;12.70
68027;BMP180;54819;48.030;14.710;2023-05-03T01:56:09;98186.60;;;12.70
68027;BMP180;54819;48.030;14.710;2023-05-03T01:58:35;98185.40;;;12.70
68027;BMP180;54819;48.030;14.710;2023-05-03T02:01:06;98184.40;;;12.70
68027;BMP180;54819;48.030;14.710;2023-05-03T02:03:33;98189.40;;;12.64
68027;BMP180;54819;48.030;14.710;2023-05-03T02:06:00;98186.80;;;12.64
68027;BMP180;54819;48.030;14.710;2023-05-03T02:08:27;98179.40;;;12.60
68027;BMP180;54819;48.030;14.710;2023-05-03T02:10:54;98183.80;;;12.60
68027;BMP180;54819;48.030;14.710;2023-05-03T02:13:21;98180.40;;;12.60
68027;BMP180;54819;48.030;14.710;2023-05-03T02:15:48;98182.00;;;12.60
68027;BMP180;54819;48.030;14.710;2023-05-03T02:18:14;98184.60;;;12.60
68027;BMP180;54819;48.030;14.710;2023-05-03T02:20:45;98184.80;;;12.60
68027;BMP180;54819;48.030;14.710;2023-05-03T02:23:12;98187.60;;;12.60
68027;BMP180;54819;48.030;14.710;2023-05-03T02:25:40;98185.60;;;12.60
68027;BMP180;54819;48.030;14.710;2023-05-03T02:28:07;98186.80;;;12.60
68027;BMP180;54819;48.030;14.710;2023-05-03T02:30:34;98182.20;;;12.60
68027;BMP180;54819;48.030;14.710;2023-05-03T02:33:01;98181.80;;;12.60
68027;BMP180;54819;48.030;14.710;2023-05-03T02:35:29;98183.60;;;12.60
68027;BMP180;54819;48.030;14.710;2023-05-03T02:37:56;98181.60;;;12.50
68027;BMP180;54819;48.030;14.710;2023-05-03T02:40:23;98182.20;;;12.52
68027;BMP180;54819;48.030;14.710;2023-05-03T02:42:51;98182.20;;;12.50
68027;BMP180;54819;48.030;14.710;2023-05-03T02:45:20;98177.80;;;12.50
68027;BMP180;54819;48.030;14.710;2023-05-03T02:47:47;98176.00;;;12.50
68027;BMP180;54819;48.030;14.710;2023-05-03T02:50:14;98178.20;;;12.50
68027;BMP180;54819;48.030;14.710;2023-05-03T02:52:41;98177.40;;;12.52
68027;BMP180;54819;48.030;14.710;2023-05-03T02:55:09;98177.20;;;12.52
68027;BMP180;54819;48.030;14.710;2023-05-03T02:57:36;98172.20;;;12.50
68027;BMP180;54819;48.030;14.710;2023-05-03T03:00:04;98172.40;;;12.54
68027;BMP180;54819;48.030;14.710;2023-05-03T03:02:32;98174.80;;;12.56
68027;BMP180;54819;48.030;14.710;2023-05-03T03:04:59;98174.80;;;12.50
68027;BMP180;54819;48.030;14.710;2023-05-03T03:07:27;98176.20;;;12.50
68027;BMP180;54819;48.030;14.710;2023-05-03T03:09:54;98178.40;;;12.50
68027;BMP180;54819;48.030;14.710;2023-05-03T03:12:21;98180.60;;;12.50
68027;BMP180;54819;48.030;14.710;2023-05-03T03:14:48;98178.80;;;12.50
68027;BMP180;54819;48.030;14.710;2023-05-03T03:17:14;98181.40;;;12.50
68027;BMP180;54819;48.030;14.710;2023-05-03T03:19:41;98179.20;;;12.50
68027;BMP180;54819;48.030;14.710;2023-05-03T03:22:08;98185.20;;;12.50
68027;BMP180;54819;48.030;14.710;2023-05-03T03:24:35;98184.40;;;12.50
68027;BMP180;54819;48.030;14.710;2023-05-03T03:27:02;98185.00;;;12.50
68027;BMP180;54819;48.030;14.710;2023-05-03T03:29:32;98187.00;;;12.50
68027;BMP180;54819;48.030;14.710;2023-05-03T03:31:59;98185.80;;;12.50
68027;BMP180;54819;48.030;14.710;2023-05-03T03:34:26;98184.80;;;12.50
68027;BMP180;54819;48.030;14.710;2023-05-03T03:36:54;98189.20;;;12.50
68027;BMP180;54819;48.030;14.710;2023-05-03T03:39:21;98193.20;;;12.50
68027;BMP180;54819;48.030;14.710;2023-05-03T03:41:47;98194.80;;;12.50
68027;BMP180;54819;48.030;14.710;2023-05-03T03:44:14;98197.20;;;12.40
68027;BMP180;54819;48.030;14.710;2023-05-03T03:46:42;98202.20;;;12.40
68027;BMP180;54819;48.030;14.710;2023-05-03T03:49:09;98196.60;;;12.40
68027;BMP180;54819;48.030;14.710;2023-05-03T03:51:36;98193.80;;;12.40
68027;BMP180;54819;48.030;14.710;2023-05-03T03:54:03;98188.80;;;12.40
68027;BMP180;54819;48.030;14.710;2023-05-03T03:56:31;98188.60;;;12.40
68027;BMP180;54819;48.030;14.710;2023-05-03T03:58:58;98193.80;;;12.40
68027;BMP180;54819;48.030;14.710;2023-05-03T04:01:25;98194.80;;;12.40
68027;BMP180;54819;48.030;14.710;2023-05-03T04:03:52;98197.20;;;12.40
68027;BMP180;54819;48.030;14.710;2023-05-03T04:06:19;98198.00;;;12.44
68027;BMP180;54819;48.030;14.710;2023-05-03T04:08:47;98196.00;;;12.40
68027;BMP180;54819;48.030;14.710;2023-05-03T04:11:14;98199.00;;;12.42
68027;BMP180;54819;48.030;14.710;2023-05-03T04:13:46;98205.00;;;12.50
68027;BMP180;54819;48.030;14.710;2023-05-03T04:16:13;98204.40;;;12.50
68027;BMP180;54819;48.030;14.710;2023-05-03T04:18:41;98205.80;;;12.50
68027;BMP180;54819;48.030;14.710;2023-05-03T04:21:08;98210.20;;;12.50
68027;BMP180;54819;48.030;14.710;2023-05-03T04:23:35;98210.60;;;12.50
68027;BMP180;54819;48.030;14.710;2023-05-03T04:26:03;98213.60;;;12.50
68027;BMP180;54819;48.030;14.710;2023-05-03T04:28:32;98215.00;;;12.50
68027;BMP180;54819;48.030;14.710;2023-05-03T04:30:59;98215.20;;;12.60
68027;BMP180;54819;48.030;14.710;2023-05-03T04:33:26;98215.40;;;12.60
68027;BMP180;54819;48.030;14.710;2023-05-03T04:35:58;98213.20;;;12.60
68027;BMP180;54819;48.030;14.710;2023-05-03T04:38:25;98213.80;;;12.70
68027;BMP180;54819;48.030;14.710;2023-05-03T04:40:51;98219.20;;;12.70
68027;BMP180;54819;48.030;14.710;2023-05-03T04:43:19;98221.20;;;12.70
68027;BMP180;54819;48.030;14.710;2023-05-03T04:45:46;98223.60;;;12.70
68027;BMP180;54819;48.030;14.710;2023-05-03T04:48:16;98222.60;;;12.70
68027;BMP180;54819;48.030;14.710;2023-05-03T04:50:44;98222.20;;;12.70
68027;BMP180;54819;48.030;14.710;2023-05-03T04:53:11;98223.40;;;12.80
68027;BMP180;54819;48.030;14.710;2023-05-03T04:55:40;98226.00;;;12.80
68027;BMP180;54819;48.030;14.710;2023-05-03T04:58:07;98232.00;;;12.80
68027;BMP180;54819;48.030;14.710;2023-05-03T05:00:35;98233.60;;;12.80
68027;BMP180;54819;48.030;14.710;2023-05-03T05:03:07;98236.00;;;12.80
68027;BMP180;54819;48.030;14.710;2023-05-03T05:05:34;98232.20;;;12.88
68027;BMP180;54819;48.030;14.710;2023-05-03T05:08:01;98237.60;;;12.90
68027;BMP180;54819;48.030;14.710;2023-05-03T05:10:40;98236.60;;;12.90
68027;BMP180;54819;48.030;14.710;2023-05-03T05:13:08;98243.40;;;12.90
68027;BMP180;54819;48.030;14.710;2023-05-03T05:15:34;98243.60;;;12.90
68027;BMP180;54819;48.030;14.710;2023-05-03T05:18:01;98248.60;;;12.90
68027;BMP180;54819;48.030;14.710;2023-05-03T05:20:28;98250.80;;;12.90
68027;BMP180;54819;48.030;14.710;2023-05-03T05:22:56;98253.00;;;12.90
68027;BMP180;54819;48.030;14.710;2023-05-03T05:25:23;98260.00;;;12.90
68027;BMP180;54819;48.030;14.710;2023-05-03T05:27:49;98258.20;;;12.90
68027;BMP180;54819;48.030;14.710;2023-05-03T05:30:16;98259.00;;;12.90
68027;BMP180;54819;48.030;14.710;2023-05-03T05:32:43;98262.40;;;12.90
68027;BMP180;54819;48.030;14.710;2023-05-03T05:35:10;98257.40;;;12.90
68027;BMP180;54819;48.030;14.710;2023-05-03T05:37:37;98259.20;;;12.90
68027;BMP180;54819;48.030;14.710;2023-05-03T05:40:05;98264.80;;;12.92
68027;BMP180;54819;48.030;14.710;2023-05-03T05:42:38;98266.80;;;13.00
68027;BMP180;54819;48.030;14.710;2023-05-03T05:45:05;98269.20;;;13.00
68027;BMP180;54819;48.030;14.710;2023-05-03T05:47:33;98274.00;;;13.00
68027;BMP180;54819;48.030;14.710;2023-05-03T05:50:01;98273.20;;;13.00
68027;BMP180;54819;48.030;14.710;2023-05-03T05:52:41;98275.60;;;13.00
68027;BMP180;54819;48.030;14.710;2023-05-03T05:55:08;98272.60;;;12.98
68027;BMP180;54819;48.030;14.710;2023-05-03T05:57:39;98272.00;;;13.00
68027;BMP180;54819;48.030;14.710;2023-05-03T06:00:07;98276.60;;;13.08
68027;BMP180;54819;48.030;14.710;2023-05-03T06:02:40;98276.00;;;13.10
68027;BMP180;54819;48.030;14.710;2023-05-03T06:05:11;98278.80;;;13.10
68027;BMP180;54819;48.030;14.710;2023-05-03T06:07:37;98280.80;;;13.10
68027;BMP180;54819;48.030;14.710;2023-05-03T06:10:06;98279.80;;;13.10
68027;BMP180;54819;48.030;14.710;2023-05-03T06:12:34;98281.40;;;13.20
68027;BMP180;54819;48.030;14.710;2023-05-03T06:15:04;98286.00;;;13.20
68027;BMP180;54819;48.030;14.710;2023-05-03T06:17:35;98284.00;;;13.30
68027;BMP180;54819;48.030;14.710;2023-05-03T06:20:02;98283.80;;;13.30
68027;BMP180;54819;48.030;14.710;2023-05-03T06:22:31;98280.20;;;13.42
68027;BMP180;54819;48.030;14.710;2023-05-03T06:24:58;98284.00;;;13.50
68027;BMP180;54819;48.030;14.710;2023-05-03T06:27:25;98287.20;;;13.60
68027;BMP180;54819;48.030;14.710;2023-05-03T06:29:52;98288.20;;;13.70
68027;BMP180;54819;48.030;14.710;2023-05-03T06:32:19;98290.00;;;13.80
68027;BMP180;54819;48.030;14.710;2023-05-03T06:34:48;98290.20;;;13.80
68027;BMP180;54819;48.030;14.710;2023-05-03T06:37:16;98288.60;;;13.90
68027;BMP180;54819;48.030;14.710;2023-05-03T06:39:43;98298.80;;;14.00
68027;BMP180;54819;48.030;14.710;2023-05-03T06:42:10;98299.40;;;14.02
68027;BMP180;54819;48.030;14.710;2023-05-03T06:44:39;98301.80;;;14.08
68027;BMP180;54819;48.030;14.710;2023-05-03T06:47:06;98303.40;;;14.10
68027;BMP180;54819;48.030;14.710;2023-05-03T06:49:33;98305.60;;;14.10
68027;BMP180;54819;48.030;14.710;2023-05-03T06:51:59;98308.40;;;14.10
68027;BMP180;54819;48.030;14.710;2023-05-03T06:54:26;98309.40;;;14.10
68027;BMP180;54819;48.030;14.710;2023-05-03T06:56:53;98312.00;;;14.06
68027;BMP180;54819;48.030;14.710;2023-05-03T06:59:19;98310.60;;;14.00
68027;BMP180;54819;48.030;14.710;2023-05-03T07:01:46;98310.00;;;14.00
68027;BMP180;54819;48.030;14.710;2023-05-03T07:04:13;98305.20;;;14.00
68027;BMP180;54819;48.030;14.710;2023-05-03T07:06:40;98307.20;;;14.00
68027;BMP180;54819;48.030;14.710;2023-05-03T07:09:21;98307.40;;;14.00
68027;BMP180;54819;48.030;14.710;2023-05-03T07:12:07;98311.80;;;14.00
68027;BMP180;54819;48.030;14.710;2023-05-03T07:14:34;98314.40;;;13.92
68027;BMP180;54819;48.030;14.710;2023-05-03T07:17:01;98313.60;;;13.90
68027;BMP180;54819;48.030;14.710;2023-05-03T07:19:27;98316.20;;;13.90
68027;BMP180;54819;48.030;14.710;2023-05-03T07:21:55;98313.00;;;13.90
68027;BMP180;54819;48.030;14.710;2023-05-03T07:24:22;98313.60;;;13.90
68027;BMP180;54819;48.030;14.710;2023-05-03T07:26:52;98312.40;;;13.90
68027;BMP180;54819;48.030;14.710;2023-05-03T07:29:20;98310.20;;;13.98
68027;BMP180;54819;48.030;14.710;2023-05-03T07:31:47;98315.00;;;14.02
68027;BMP180;54819;48.030;14.710;2023-05-03T07:34:14;98314.60;;;14.10
68027;BMP180;54819;48.030;14.710;2023-05-03T07:36:40;98316.20;;;14.10
68027;BMP180;54819;48.030;14.710;2023-05-03T07:39:07;98318.40;;;14.10
68027;BMP180;54819;48.030;14.710;2023-05-03T07:41:34;98315.60;;;14.18
68027;BMP180;54819;48.030;14.710;2023-05-03T07:44:01;98317.60;;;14.30
68027;BMP180;54819;48.030;14.710;2023-05-03T07:46:28;98313.60;;;14.30
68027;BMP180;54819;48.030;14.710;2023-05-03T07:49:01;98317.00;;;14.34
68027;BMP180;54819;48.030;14.710;2023-05-03T07:51:34;98312.00;;;14.32
68027;BMP180;54819;48.030;14.710;2023-05-03T07:54:01;98310.80;;;14.32
68027;BMP180;54819;48.030;14.710;2023-05-03T07:56:29;98308.20;;;14.40
68027;BMP180;54819;48.030;14.710;2023-05-03T07:58:56;98309.80;;;14.40
68027;BMP180;54819;48.030;14.710;2023-05-03T08:01:35;98310.80;;;14.50
68027;BMP180;54819;48.030;14.710;2023-05-03T08:04:01;98307.20;;;14.50
68027;BMP180;54819;48.030;14.710;2023-05-03T08:06:29;98312.40;;;14.58
68027;BMP180;54819;48.030;14.710;2023-05-03T08:08:57;98311.40;;;14.60
68027;BMP180;54819;48.030;14.710;2023-05-03T08:11:26;98314.60;;;14.52
68027;BMP180;54819;48.030;14.710;2023-05-03T08:13:54;98312.20;;;14.50
68027;BMP180;54819;48.030;14.710;2023-05-03T08:16:21;98315.00;;;14.50
68027;BMP180;54819;48.030;14.710;2023-05-03T08:18:48;98312.40;;;14.60
68027;BMP180;54819;48.030;14.710;2023-05-03T08:21:15;98310.00;;;14.66
68027;BMP180;54819;48.030;14.710;2023-05-03T08:23:43;98309.00;;;14.66
68027;BMP180;54819;48.030;14.710;2023-05-03T08:26:10;98310.00;;;14.66
68027;BMP180;54819;48.030;14.710;2023-05-03T08:28:40;98309.60;;;14.80
68027;BMP180;54819;48.030;14.710;2023-05-03T08:31:07;98308.20;;;14.96
68027;BMP180;54819;48.030;14.710;2023-05-03T08:33:34;98314.60;;;15.10
68027;BMP180;54819;48.030;14.710;2023-05-03T08:36:01;98315.60;;;15.26
68027;BMP180;54819;48.030;14.710;2023-05-03T08:38:28;98313.80;;;15.46
68027;BMP180;54819;48.030;14.710;2023-05-03T08:40:58;98317.80;;;15.60
68027;BMP180;54819;48.030;14.710;2023-05-03T08:43:33;98311.20;;;15.70
68027;BMP180;54819;48.030;14.710;2023-05-03T08:46:10;98315.40;;;15.84
68027;BMP180;54819;48.030;14.710;2023-05-03T08:48:38;98311.40;;;16.22
68027;BMP180;54819;48.030;14.710;2023-05-03T08:51:07;98314.20;;;16.60
68027;BMP180;54819;48.030;14.710;2023-05-03T08:53:35;98315.20;;;16.88
68027;BMP180;54819;48.030;14.710;2023-05-03T08:56:07;98317.20;;;17.02
68027;BMP180;54819;48.030;14.710;2023-05-03T08:58:35;98320.40;;;17.16
68027;BMP180;54819;48.030;14.710;2023-05-03T09:01:08;98324.20;;;17.30
68027;BMP180;54819;48.030;14.710;2023-05-03T09:03:35;98320.60;;;17.68
68027;BMP180;54819;48.030;14.710;2023-05-03T09:06:22;98320.80;;;17.80
68027;BMP180;54819;48.030;14.710;2023-05-03T09:08:53;98324.80;;;17.82
68027;BMP180;54819;48.030;14.710;2023-05-03T09:13:51;98325.40;;;17.60
68027;BMP180;54819;48.030;14.710;2023-05-03T09:16:25;98328.40;;;17.60
68027;BMP180;54819;48.030;14.710;2023-05-03T09:19:02;98330.80;;;17.42
68027;BMP180;54819;48.030;14.710;2023-05-03T09:21:29;98331.20;;;17.30
68027;BMP180;54819;48.030;14.710;2023-05-03T09:23:59;98326.40;;;17.10
68027;BMP180;54819;48.030;14.710;2023-05-03T09:26:27;98331.80;;;16.90
68027;BMP180;54819;48.030;14.710;2023-05-03T09:28:54;98334.00;;;16.90
68027;BMP180;54819;48.030;14.710;2023-05-03T09:31:21;98333.20;;;16.60
68027;BMP180;54819;48.030;14.710;2023-05-03T09:33:48;98330.60;;;16.40
68027;BMP180;54819;48.030;14.710;2023-05-03T09:36:15;98331.80;;;16.20
68027;BMP180;54819;48.030;14.710;2023-05-03T09:38:43;98333.00;;;16.10
68027;BMP180;54819;48.030;14.710;2023-05-03T09:41:10;98334.40;;;16.00
68027;BMP180;54819;48.030;14.710;2023-05-03T09:43:48;98333.60;;;15.90
68027;BMP180;54819;48.030;14.710;2023-05-03T09:46:15;98332.60;;;15.90
68027;BMP180;54819;48.030;14.710;2023-05-03T09:48:43;98334.60;;;15.80
68027;BMP180;54819;48.030;14.710;2023-05-03T09:51:11;98331.80;;;15.80
68027;BMP180;54819;48.030;14.710;2023-05-03T09:53:39;98331.00;;;15.80
68027;BMP180;54819;48.030;14.710;2023-05-03T09:56:10;98330.40;;;15.90
68027;BMP180;54819;48.030;14.710;2023-05-03T09:58:40;98328.80;;;15.92
68027;BMP180;54819;48.030;14.710;2023-05-03T10:01:08;98329.60;;;16.00
68027;BMP180;54819;48.030;14.710;2023-05-03T10:03:44;98325.20;;;16.00
68027;BMP180;54819;48.030;14.710;2023-05-03T10:09:37;98324.60;;;16.30
68027;BMP180;54819;48.030;14.710;2023-05-03T10:12:11;98322.60;;;16.40
68027;BMP180;54819;48.030;14.710;2023-05-03T10:14:44;98325.60;;;16.50
68027;BMP180;54819;48.030;14.710;2023-05-03T10:17:23;98322.60;;;16.50
68027;BMP180;54819;48.030;14.710;2023-05-03T10:20:47;98317.00;;;16.50
68027;BMP180;54819;48.030;14.710;2023-05-03T10:23:16;98318.80;;;16.58
68027;BMP180;54819;48.030;14.710;2023-05-03T10:28:38;98311.60;;;16.54
68027;BMP180;54819;48.030;14.710;2023-05-03T10:31:45;98312.00;;;16.50
68027;BMP180;54819;48.030;14.710;2023-05-03T10:34:31;98314.20;;;16.42
68027;BMP180;54819;48.030;14.710;2023-05-03T10:37:09;98312.80;;;16.30
68027;BMP180;54819;48.030;14.710;2023-05-03T10:39:43;98313.60;;;16.20
68027;BMP180;54819;48.030;14.710;2023-05-03T10:42:11;98313.80;;;16.20
68027;BMP180;54819;48.030;14.710;2023-05-03T10:47:19;98316.20;;;16.02
68027;BMP180;54819;48.030;14.710;2023-05-03T10:55:22;98315.20;;;16.00
68027;BMP180;54819;48.030;14.710;2023-05-03T10:57:56;98310.40;;;16.20
68027;BMP180;54819;48.030;14.710;2023-05-03T11:00:40;98309.60;;;16.38
68027;BMP180;54819;48.030;14.710;2023-05-03T11:06:07;98314.60;;;16.60
68027;BMP180;54819;48.030;14.710;2023-05-03T11:08:34;98315.40;;;16.60
68027;BMP180;54819;48.030;14.710;2023-05-03T11:11:04;98311.00;;;16.50
68027;BMP180;54819;48.030;14.710;2023-05-03T11:13:35;98310.40;;;16.50
68027;BMP180;54819;48.030;14.710;2023-05-03T11:16:04;98309.40;;;16.56
68027;BMP180;54819;48.030;14.710;2023-05-03T11:18:31;98308.20;;;16.62
68027;BMP180;54819;48.030;14.710;2023-05-03T11:20:59;98307.00;;;16.64
68027;BMP180;54819;48.030;14.710;2023-05-03T11:23:27;98306.60;;;16.70
68027;BMP180;54819;48.030;14.710;2023-05-03T11:25:55;98306.60;;;16.70
68027;BMP180;54819;48.030;14.710;2023-05-03T11:28:24;98303.80;;;16.80
68027;BMP180;54819;48.030;14.710;2023-05-03T11:30:51;98300.00;;;16.90
68027;BMP180;54819;48.030;14.710;2023-05-03T11:33:18;98301.40;;;17.10
68027;BMP180;54819;48.030;14.710;2023-05-03T11:35:45;98299.80;;;17.20
68027;BMP180;54819;48.030;14.710;2023-05-03T11:38:12;98300.80;;;17.30
68027;BMP180;54819;48.030;14.710;2023-05-03T11:40:39;98300.20;;;17.40
68027;BMP180;54819;48.030;14.710;2023-05-03T11:43:06;98301.60;;;17.50
68027;BMP180;54819;48.030;14.710;2023-05-03T11:45:55;98300.00;;;17.54
68027;BMP180;54819;48.030;14.710;2023-05-03T11:48:24;98299.40;;;17.68
68027;BMP180;54819;48.030;14.710;2023-05-03T11:50:54;98296.60;;;17.80
68027;BMP180;54819;48.030;14.710;2023-05-03T11:53:24;98291.80;;;17.90
68027;BMP180;54819;48.030;14.710;2023-05-03T11:55:53;98294.20;;;18.00
68027;BMP180;54819;48.030;14.710;2023-05-03T11:58:25;98289.80;;;18.10
68027;BMP180;54819;48.030;14.710;2023-05-03T12:00:55;98286.20;;;18.12
68027;BMP180;54819;48.030;14.710;2023-05-03T12:03:28;98288.00;;;18.20
68027;BMP180;54819;48.030;14.710;2023-05-03T12:05:59;98285.40;;;18.30
68027;BMP180;54819;48.030;14.710;2023-05-03T12:08:32;98275.60;;;18.40
68027;BMP180;54819;48.030;14.710;2023-05-03T12:11:05;98277.40;;;18.48
68027;BMP180;54819;48.030;14.710;2023-05-03T12:13:37;98278.20;;;18.60
68027;BMP180;54819;48.030;14.710;2023-05-03T12:16:08;98279.40;;;18.68
68027;BMP180;54819;48.030;14.710;2023-05-03T12:18:57;98280.20;;;18.80
68027;BMP180;54819;48.030;14.710;2023-05-03T12:21:46;98278.80;;;18.90
68027;BMP180;54819;48.030;14.710;2023-05-03T12:24:33;98274.60;;;19.10
68027;BMP180;54819;48.030;14.710;2023-05-03T12:27:02;98275.00;;;19.20
68027;BMP180;54819;48.030;14.710;2023-05-03T12:29:29;98275.80;;;19.20
68027;BMP180;54819;48.030;14.710;2023-05-03T12:32:01;98271.60;;;19.30
68027;BMP180;54819;48.030;14.710;2023-05-03T12:34:30;98275.80;;;19.40
68027;BMP180;54819;48.030;14.710;2023-05-03T12:37:01;98279.80;;;19.50
68027;BMP180;54819;48.030;14.710;2023-05-03T12:39:31;98275.20;;;19.54
68027;BMP180;54819;48.030;14.710;2023-05-03T12:41:59;98275.80;;;19.60
68027;BMP180;54819;48.030;14.710;2023-05-03T12:44:33;98272.00;;;19.68
68027;BMP180;54819;48.030;14.710;2023-05-03T12:47:02;98271.20;;;19.70
68027;BMP180;54819;48.030;14.710;2023-05-03T12:49:30;98266.60;;;19.70
68027;BMP180;54819;48.030;14.710;2023-05-03T12:51:57;98265.80;;;19.74
68027;BMP180;54819;48.030;14.710;2023-05-03T12:54:29;98263.80;;;19.80
68027;BMP180;54819;48.030;14.710;2023-05-03T12:57:00;98259.00;;;19.82
68027;BMP180;54819;48.030;14.710;2023-05-03T12:59:38;98252.00;;;19.90
68027;BMP180;54819;48.030;14.710;2023-05-03T13:02:10;98246.60;;;20.00
68027;BMP180;54819;48.030;14.710;2023-05-03T13:04:40;98248.20;;;20.10
68027;BMP180;54819;48.030;14.710;2023-05-03T13:07:10;98244.40;;;20.12
68027;BMP180;54819;48.030;14.710;2023-05-03T13:09:43;98245.80;;;20.20
68027;BMP180;54819;48.030;14.710;2023-05-03T13:12:31;98243.80;;;20.28
68027;BMP180;54819;48.030;14.710;2023-05-03T13:15:00;98245.40;;;20.30
68027;BMP180;54819;48.030;14.710;2023-05-03T13:17:30;98241.80;;;20.44
68027;BMP180;54819;48.030;14.710;2023-05-03T13:19:58;98237.40;;;20.40
68027;BMP180;54819;48.030;14.710;2023-05-03T13:22:25;98235.20;;;20.38
68027;BMP180;54819;48.030;14.710;2023-05-03T13:24:52;98232.00;;;20.30
68027;BMP180;54819;48.030;14.710;2023-05-03T13:27:19;98232.40;;;20.30
68027;BMP180;54819;48.030;14.710;2023-05-03T13:29:45;98230.20;;;20.30
68027;BMP180;54819;48.030;14.710;2023-05-03T13:32:15;98227.60;;;20.32
68027;BMP180;54819;48.030;14.710;2023-05-03T13:34:42;98225.60;;;20.34
68027;BMP180;54819;48.030;14.710;2023-05-03T13:37:09;98223.40;;;20.36
68027;BMP180;54819;48.030;14.710;2023-05-03T13:39:37;98219.00;;;20.32
68027;BMP180;54819;48.030;14.710;2023-05-03T13:42:03;98219.60;;;20.30
68027;BMP180;54819;48.030;14.710;2023-05-03T13:44:30;98218.80;;;20.30
68027;BMP180;54819;48.030;14.710;2023-05-03T13:46:57;98214.20;;;20.30
68027;BMP180;54819;48.030;14.710;2023-05-03T13:49:23;98213.20;;;20.30
68027;BMP180;54819;48.030;14.710;2023-05-03T13:51:51;98211.20;;;20.26
68027;BMP180;54819;48.030;14.710;2023-05-03T13:54:18;98211.20;;;20.22
68027;BMP180;54819;48.030;14.710;2023-05-03T13:56:44;98211.60;;;20.30
68027;BMP180;54819;48.030;14.710;2023-05-03T13:59:12;98206.60;;;20.28
68027;BMP180;54819;48.030;14.710;2023-05-03T14:01:42;98206.80;;;20.24
68027;BMP180;54819;48.030;14.710;2023-05-03T14:04:09;98207.40;;;20.20
68027;BMP180;54819;48.030;14.710;2023-05-03T14:06:36;98202.80;;;20.20
68027;BMP180;54819;48.030;14.710;2023-05-03T14:09:06;98200.20;;;20.20
68027;BMP180;54819;48.030;14.710;2023-05-03T14:11:33;98202.20;;;20.20
68027;BMP180;54819;48.030;14.710;2023-05-03T14:14:01;98205.20;;;20.10
68027;BMP180;54819;48.030;14.710;2023-05-03T14:16:27;98207.20;;;20.10
68027;BMP180;54819;48.030;14.710;2023-05-03T14:18:57;98207.00;;;20.00
68027;BMP180;54819;48.030;14.710;2023-05-03T14:21:24;98210.40;;;20.00
68027;BMP180;54819;48.030;14.710;2023-05-03T14:23:51;98210.80;;;19.90
68027;BMP180;54819;48.030;14.710;2023-05-03T14:26:20;98211.40;;;19.90
68027;BMP180;54819;48.030;14.710;2023-05-03T14:28:47;98207.00;;;19.86
68027;BMP180;54819;48.030;14.710;2023-05-03T14:31:14;98208.60;;;19.78
68027;BMP180;54819;48.030;14.710;2023-05-03T14:33:42;98205.20;;;19.70